createdAt,value
2019-05-12T00:01:42.384Z,9.85
2019-05-12T00:04:12.432Z,9.50
2019-05-12T00:06:42.502Z,10.25
2019-05-12T00:09:12.571Z,9.87
2019-05-12T00:11:42.536Z,10.21
2019-05-12T00:14:12.786Z,9.73
2019-05-12T00:16:42.748Z,9.71
2019-05-12T00:19:12.726Z,9.09
2019-05-12T00:21:42.716Z,9.60
2019-05-12T00:24:12.772Z,9.27
2019-05-12T00:26:43.323Z,9.17
2019-05-12T00:29:13.386Z,9.64
2019-05-12T00:31:43.336Z,9.29
2019-05-12T00:34:13.382Z,8.82
2019-05-12T00:36:43.519Z,9.07
2019-05-12T00:39:13.509Z,8.88
2019-05-12T00:41:44.574Z,9.44
2019-05-12T00:44:15.142Z,8.81
2019-05-12T00:46:45.105Z,9.62
2019-05-12T00:49:15.100Z,9.18
2019-05-12T00:51:45.110Z,9.32
2019-05-12T00:54:15.126Z,9.28
2019-05-12T00:56:45.106Z,9.70
2019-05-12T00:59:15.102Z,8.95
2019-05-12T01:01:45.141Z,9.25
2019-05-12T01:04:17.482Z,9.40
2019-05-12T01:06:48.634Z,9.11
2019-05-12T01:09:18.485Z,8.97
2019-05-12T01:11:48.514Z,8.92
2019-05-12T01:14:18.789Z,9.04
2019-05-12T01:16:48.974Z,9.41
2019-05-12T01:19:18.954Z,9.27
2019-05-12T01:21:49.006Z,9.01
2019-05-12T01:24:19.058Z,9.21
2019-05-12T01:26:49.030Z,9.48
2019-05-12T01:29:19.036Z,9.04
2019-05-12T01:32:08.044Z,8.81
2019-05-12T01:34:38.327Z,8.90
2019-05-12T01:37:23.297Z,9.15
2019-05-12T01:39:53.658Z,9.03
2019-05-12T01:42:23.615Z,8.88
2019-05-12T01:44:53.602Z,9.42
2019-05-12T01:47:23.553Z,9.12
2019-05-12T01:49:53.549Z,8.82
2019-05-12T01:52:23.495Z,9.85
2019-05-12T01:54:53.469Z,9.41
2019-05-12T01:57:23.424Z,9.12
2019-05-12T01:59:53.399Z,9.07
2019-05-12T02:02:23.649Z,8.83
2019-05-12T02:05:10.272Z,9.73
2019-05-12T02:07:49.256Z,9.81
2019-05-12T02:10:19.571Z,9.67
2019-05-12T02:12:49.589Z,10.12
2019-05-12T02:15:20.166Z,9.79
2019-05-12T02:17:50.106Z,10.04
2019-05-12T02:20:20.734Z,10.24
2019-05-12T02:22:50.679Z,10.27
2019-05-12T02:25:20.981Z,10.22
2019-05-12T02:27:50.933Z,10.26
2019-05-12T02:30:20.913Z,9.92
2019-05-12T02:32:57.458Z,10.25
2019-05-12T02:35:24.718Z,10.32
2019-05-12T02:37:55.025Z,10.40
2019-05-12T02:40:25.574Z,10.22
2019-05-12T02:42:55.927Z,10.20
2019-05-12T02:45:26.015Z,9.89
2019-05-12T02:47:56.092Z,9.88
2019-05-12T02:50:35.326Z,10.00
2019-05-12T02:53:06.226Z,10.07
2019-05-12T02:55:36.894Z,10.26
2019-05-12T02:58:07.021Z,10.12
2019-05-12T03:00:37.535Z,10.22
2019-05-12T03:03:09.397Z,9.73
2019-05-12T03:05:40.850Z,9.81
2019-05-12T03:08:15.380Z,9.36
2019-05-12T03:10:46.606Z,10.10
2019-05-12T03:13:16.558Z,9.24
2019-05-12T03:15:46.608Z,10.11
2019-05-12T03:18:16.588Z,9.87
2019-05-12T03:20:46.554Z,10.14
2019-05-12T03:23:19.323Z,10.18
2019-05-12T03:25:48.193Z,10.12
2019-05-12T03:28:18.161Z,10.24
2019-05-12T03:30:49.305Z,10.16
2019-05-12T03:33:20.408Z,10.27
2019-05-12T03:35:54.956Z,10.20
2019-05-12T03:38:24.775Z,10.24
2019-05-12T03:40:55.082Z,10.13
2019-05-12T03:43:25.271Z,10.11
2019-05-12T03:45:56.028Z,10.13
2019-05-12T03:48:26.088Z,10.09
2019-05-12T03:50:56.053Z,10.12
2019-05-12T03:53:26.188Z,10.19
2019-05-12T03:55:56.133Z,10.06
2019-05-12T03:58:26.113Z,9.85
2019-05-12T04:00:56.082Z,9.87
2019-05-12T04:03:26.022Z,10.04
2019-05-12T04:05:55.985Z,9.62
2019-05-12T04:08:25.964Z,9.82
2019-05-12T04:10:55.930Z,9.58
2019-05-12T04:13:26.720Z,9.05
2019-05-12T04:15:56.884Z,9.21
2019-05-12T04:18:26.841Z,9.73
2019-05-12T04:20:56.921Z,9.60
2019-05-12T04:23:26.882Z,9.63
2019-05-12T04:26:07.377Z,9.16
2019-05-12T04:28:28.527Z,9.62
2019-05-12T04:30:58.475Z,9.44
2019-05-12T04:33:28.448Z,8.91
2019-05-12T04:35:58.389Z,9.11
2019-05-12T04:38:28.360Z,9.42
2019-05-12T04:40:58.326Z,8.20
2019-05-12T04:43:28.303Z,8.64
2019-05-12T04:45:58.233Z,8.28
2019-05-12T04:48:28.204Z,8.31
2019-05-12T04:50:58.167Z,8.42
2019-05-12T04:53:28.127Z,8.96
2019-05-12T04:56:10.657Z,8.59
2019-05-12T04:58:29.780Z,8.54
2019-05-12T05:00:59.731Z,8.66
2019-05-12T05:03:29.698Z,8.75
2019-05-12T05:05:59.654Z,8.87
2019-05-12T05:08:29.636Z,9.14
2019-05-12T05:10:59.562Z,8.53
2019-05-12T05:13:29.536Z,8.95
2019-05-12T05:15:59.486Z,8.63
2019-05-12T05:18:29.462Z,8.63
2019-05-12T05:20:59.446Z,8.73
2019-05-12T05:23:29.398Z,8.59
2019-05-12T05:25:59.358Z,8.90
2019-05-12T05:28:29.318Z,8.63
2019-05-12T05:30:59.316Z,8.65
2019-05-12T05:33:29.272Z,8.62
2019-05-12T05:35:59.244Z,8.73
2019-05-12T05:38:29.730Z,8.56
2019-05-12T05:41:04.792Z,8.99
2019-05-12T05:43:33.328Z,8.80
2019-05-12T05:46:07.856Z,8.91
2019-05-12T05:48:35.247Z,9.12
2019-05-12T05:51:08.937Z,9.24
2019-05-12T05:53:37.275Z,9.06
2019-05-12T05:56:07.278Z,9.01
2019-05-12T05:58:40.208Z,9.33
2019-05-12T06:01:08.925Z,9.10
2019-05-12T06:03:38.970Z,9.18
2019-05-12T06:06:12.382Z,9.29
2019-05-12T06:08:40.647Z,9.28
2019-05-12T06:11:14.836Z,9.18
2019-05-12T06:13:44.314Z,9.48
2019-05-12T06:16:20.412Z,9.56
2019-05-12T06:18:45.743Z,9.58
2019-05-12T06:21:15.819Z,9.39
2019-05-12T06:23:45.790Z,9.61
2019-05-12T06:26:21.202Z,9.66
2019-05-12T06:28:47.498Z,9.58
2019-05-12T06:31:19.070Z,9.60
2019-05-12T06:33:49.190Z,9.56
2019-05-12T06:36:22.024Z,9.47
2019-05-12T06:38:50.898Z,9.68
2019-05-12T06:41:23.645Z,9.72
2019-05-12T06:43:54.096Z,9.68
2019-05-12T06:46:25.874Z,9.82
2019-05-12T06:49:00.743Z,10.06
2019-05-12T06:51:27.737Z,9.88
2019-05-12T06:54:00.927Z,10.16
2019-05-12T06:56:29.424Z,10.24
2019-05-12T06:59:00.978Z,10.38
2019-05-12T07:01:33.311Z,10.55
2019-05-12T07:04:06.795Z,10.43
2019-05-12T07:06:34.481Z,10.24
2019-05-12T07:09:09.970Z,10.44
2019-05-12T07:11:45.059Z,10.69
2019-05-12T07:14:18.901Z,10.84
2019-05-12T07:16:44.155Z,10.76
2019-05-12T07:19:17.442Z,10.60
2019-05-12T07:21:50.613Z,10.74
2019-05-12T07:24:17.586Z,11.45
2019-05-12T07:26:48.119Z,11.42
2019-05-12T07:29:18.255Z,11.13
2019-05-12T07:31:48.247Z,11.31
2019-05-12T07:34:18.226Z,11.61
2019-05-12T07:36:48.601Z,11.79
2019-05-12T07:39:19.481Z,11.99
2019-05-12T07:41:51.277Z,12.04
2019-05-12T07:44:25.171Z,11.77
2019-05-12T07:46:54.225Z,11.98
2019-05-12T07:49:34.344Z,12.25
2019-05-12T07:51:56.760Z,12.65
2019-05-12T07:54:29.440Z,12.51
2019-05-12T07:57:05.392Z,12.71
2019-05-12T07:59:38.777Z,12.95
2019-05-12T08:02:03.885Z,13.16
2019-05-12T08:04:39.848Z,13.22
2019-05-12T08:07:05.873Z,13.19
2019-05-12T08:09:36.553Z,13.18
2019-05-12T08:12:09.617Z,13.70
2019-05-12T08:14:38.819Z,13.70
2019-05-12T08:17:11.964Z,13.65
2019-05-12T08:19:40.493Z,13.65
2019-05-12T08:22:10.527Z,13.43
2019-05-12T08:24:43.026Z,13.51
2019-05-12T08:27:14.296Z,13.55
2019-05-12T08:29:44.092Z,13.58
2019-05-12T08:32:15.930Z,14.11
2019-05-12T08:34:45.721Z,14.47
2019-05-12T08:37:15.721Z,14.53
2019-05-12T08:39:45.694Z,14.61
2019-05-12T08:42:15.720Z,14.54
2019-05-12T08:44:45.955Z,14.43
2019-05-12T08:47:16.005Z,14.54
2019-05-12T08:49:51.174Z,14.82
2019-05-12T08:52:17.845Z,14.85
2019-05-12T08:54:49.501Z,15.00
2019-05-12T08:57:19.578Z,15.11
2019-05-12T08:59:54.664Z,15.26
2019-05-12T09:02:23.925Z,14.85
2019-05-12T09:04:55.698Z,15.56
2019-05-12T09:07:30.540Z,15.07
2019-05-12T09:09:59.090Z,15.57
2019-05-12T09:12:30.165Z,16.56
2019-05-12T09:15:00.379Z,16.82
2019-05-12T09:17:30.772Z,16.04
2019-05-12T09:20:03.669Z,15.80
2019-05-12T09:22:34.318Z,16.68
2019-05-12T09:25:08.381Z,15.99
2019-05-12T09:27:39.538Z,16.00
2019-05-12T09:30:11.308Z,16.54
2019-05-12T09:32:48.084Z,16.15
2019-05-12T09:35:14.615Z,16.38
2019-05-12T09:37:45.130Z,16.12
2019-05-12T09:40:20.451Z,16.47
2019-05-12T09:42:48.585Z,16.41
2019-05-12T09:45:20.438Z,17.04
2019-05-12T09:47:50.770Z,16.78
2019-05-12T09:50:23.376Z,16.61
2019-05-12T09:52:55.591Z,16.93
2019-05-12T09:55:26.992Z,17.20
2019-05-12T09:57:57.536Z,16.47
2019-05-12T10:00:30.312Z,16.87
2019-05-12T10:03:00.832Z,16.39
2019-05-12T10:05:39.390Z,16.62
2019-05-12T10:08:04.619Z,17.33
2019-05-12T10:10:38.799Z,16.69
2019-05-12T10:13:06.013Z,16.76
2019-05-12T10:15:35.985Z,16.70
2019-05-12T10:18:10.775Z,16.36
2019-05-12T10:20:39.834Z,16.76
2019-05-12T10:23:10.313Z,16.49
2019-05-12T10:25:41.115Z,17.35
2019-05-12T10:28:12.845Z,16.98
2019-05-12T10:30:47.295Z,16.81
2019-05-12T10:33:15.006Z,16.24
2019-05-12T10:35:45.018Z,16.25
2019-05-12T10:38:15.015Z,16.97
2019-05-12T10:40:48.212Z,17.58
2019-05-12T10:43:16.666Z,17.27
2019-05-12T10:45:46.678Z,17.20
2019-05-12T10:48:17.617Z,17.73
2019-05-12T10:50:47.612Z,17.19
2019-05-12T10:53:17.986Z,17.04
2019-05-12T10:55:48.200Z,17.23
2019-05-12T10:58:18.187Z,16.60
2019-05-12T11:00:48.269Z,16.62
2019-05-12T11:03:18.232Z,16.82
2019-05-12T11:05:48.243Z,17.04
2019-05-12T11:08:18.221Z,16.98
2019-05-12T11:10:50.256Z,16.86
2019-05-12T11:13:19.899Z,16.66
2019-05-12T11:15:49.903Z,16.76
2019-05-12T11:18:28.815Z,16.72
2019-05-12T11:20:54.404Z,17.30
2019-05-12T11:23:24.751Z,17.07
2019-05-12T11:25:54.735Z,17.05
2019-05-12T11:28:24.677Z,16.95
2019-05-12T11:30:54.663Z,16.88
2019-05-12T11:33:24.627Z,17.07
2019-05-12T11:35:54.625Z,17.39
2019-05-12T11:38:25.181Z,17.18
2019-05-12T11:40:55.223Z,17.60
2019-05-12T11:43:25.236Z,17.06
2019-05-12T11:45:55.421Z,16.91
2019-05-12T11:48:25.407Z,17.12
2019-05-12T11:50:55.408Z,16.78
2019-05-12T11:53:30.827Z,16.87
2019-05-12T11:55:57.113Z,17.05
2019-05-12T11:58:27.095Z,16.63
2019-05-12T12:01:03.907Z,16.47
2019-05-12T12:03:30.458Z,16.52
2019-05-12T12:06:00.436Z,17.21
2019-05-12T12:08:33.755Z,17.20
2019-05-12T12:11:03.948Z,16.75
2019-05-12T12:13:34.010Z,17.53
2019-05-12T12:16:06.955Z,16.77
2019-05-12T12:18:36.481Z,16.95
2019-05-12T12:21:07.862Z,16.78
2019-05-12T12:23:40.854Z,16.87
2019-05-12T12:26:13.217Z,16.62
2019-05-12T12:28:43.575Z,16.43
2019-05-12T12:31:13.673Z,16.23
2019-05-12T12:33:47.083Z,16.53
2019-05-12T12:36:15.363Z,16.54
2019-05-12T12:38:45.341Z,16.44
2019-05-12T12:41:15.332Z,16.26
2019-05-12T12:43:45.308Z,16.29
2019-05-12T12:46:21.562Z,16.93
2019-05-12T12:48:51.647Z,16.55
2019-05-12T12:51:23.578Z,16.65
2019-05-12T12:53:54.061Z,16.39
2019-05-12T12:56:29.863Z,16.51
2019-05-12T12:58:55.929Z,16.29
2019-05-12T13:01:28.600Z,16.40
2019-05-12T13:03:59.320Z,16.46
2019-05-12T13:06:29.367Z,16.65
2019-05-12T13:08:59.347Z,15.98
2019-05-12T13:11:33.442Z,16.65
2019-05-12T13:14:01.111Z,16.44
2019-05-12T13:16:31.164Z,16.49
2019-05-12T13:19:03.767Z,16.37
2019-05-12T13:21:33.906Z,16.30
2019-05-12T13:24:03.985Z,16.48
2019-05-12T13:26:35.242Z,16.66
2019-05-12T13:29:05.762Z,16.70
2019-05-12T13:31:35.961Z,16.98
2019-05-12T13:34:06.576Z,16.39
2019-05-12T13:36:39.222Z,16.35
2019-05-12T13:39:11.332Z,16.15
2019-05-12T13:41:40.977Z,16.57
2019-05-12T13:44:13.492Z,16.10
2019-05-12T13:46:43.670Z,16.29
2019-05-12T13:49:15.373Z,15.93
2019-05-12T13:51:48.449Z,16.22
2019-05-12T13:54:20.084Z,16.30
2019-05-12T13:56:49.716Z,16.51
2019-05-12T13:59:22.591Z,16.25
2019-05-12T14:01:53.941Z,16.39
2019-05-12T14:04:27.831Z,16.03
2019-05-12T14:06:55.737Z,16.02
2019-05-12T14:09:25.748Z,16.09
2019-05-12T14:11:56.522Z,16.08
2019-05-12T14:14:27.683Z,16.38
2019-05-12T14:16:59.304Z,16.15
2019-05-12T14:19:30.436Z,16.24
2019-05-12T14:22:03.367Z,16.09
2019-05-12T14:24:41.737Z,16.72
2019-05-12T14:27:04.723Z,16.47
2019-05-12T14:29:34.717Z,16.41
2019-05-12T14:32:05.406Z,16.45
2019-05-12T14:34:35.536Z,16.57
2019-05-12T14:37:10.247Z,16.24
2019-05-12T14:39:40.173Z,16.23
2019-05-12T14:42:08.970Z,16.24
2019-05-12T14:44:44.818Z,15.88
2019-05-12T14:47:10.894Z,16.24
2019-05-12T14:49:40.885Z,16.36
2019-05-12T14:52:10.892Z,16.22
2019-05-12T14:54:40.863Z,15.88
2019-05-12T14:57:10.912Z,15.60
2019-05-12T14:59:41.307Z,15.93
2019-05-12T15:02:13.461Z,16.02
2019-05-12T15:04:43.564Z,15.52
2019-05-12T15:07:15.312Z,15.42
2019-05-12T15:09:45.479Z,15.58
2019-05-12T15:12:15.452Z,15.50
2019-05-12T15:14:45.462Z,15.66
2019-05-12T15:17:22.368Z,15.41
2019-05-12T15:19:47.205Z,16.07
2019-05-12T15:22:17.200Z,15.86
2019-05-12T15:24:49.192Z,15.77
2019-05-12T15:27:18.878Z,15.31
2019-05-12T15:29:49.921Z,15.40
2019-05-12T15:32:20.565Z,15.67
2019-05-12T15:34:50.562Z,15.81
2019-05-12T15:37:20.518Z,16.09
2019-05-12T15:39:50.528Z,16.05
2019-05-12T15:42:20.524Z,15.98
2019-05-12T15:44:50.564Z,15.82
2019-05-12T15:47:23.843Z,15.74
2019-05-12T15:49:53.200Z,15.83
2019-05-12T15:52:24.633Z,15.47
2019-05-12T15:54:54.790Z,15.57
2019-05-12T15:57:24.744Z,15.77
2019-05-12T15:59:54.796Z,15.53
2019-05-12T16:02:24.793Z,15.51
2019-05-12T16:04:55.087Z,15.79
2019-05-12T16:07:29.714Z,15.54
2019-05-12T16:09:56.909Z,15.90
2019-05-12T16:12:27.132Z,15.72
2019-05-12T16:14:57.174Z,15.54
2019-05-12T16:17:27.332Z,15.47
2019-05-12T16:19:57.363Z,15.58
2019-05-12T16:22:30.720Z,15.41
2019-05-12T16:24:59.101Z,15.60
2019-05-12T16:27:33.715Z,15.78
2019-05-12T16:30:00.853Z,15.64
2019-05-12T16:32:39.219Z,15.55
2019-05-12T16:35:07.234Z,15.93
2019-05-12T16:37:35.332Z,15.93
2019-05-12T16:40:06.090Z,15.67
2019-05-12T16:42:40.777Z,15.52
2019-05-12T16:45:10.146Z,15.37
2019-05-12T16:47:39.658Z,15.35
2019-05-12T16:50:15.030Z,15.17
2019-05-12T16:52:42.822Z,15.28
2019-05-12T16:55:13.280Z,14.97
2019-05-12T16:57:51.275Z,15.29
2019-05-12T17:00:15.323Z,15.39
2019-05-12T17:02:53.803Z,15.33
2019-05-12T17:05:20.469Z,15.35
2019-05-12T17:07:50.299Z,15.10
2019-05-12T17:10:20.416Z,14.95
2019-05-12T17:12:50.402Z,15.01
2019-05-12T17:15:20.403Z,14.64
2019-05-12T17:17:50.707Z,14.80
2019-05-12T17:20:22.142Z,14.87
2019-05-12T17:22:55.145Z,14.77
2019-05-12T17:25:24.022Z,14.78
2019-05-12T17:27:58.179Z,14.83
2019-05-12T17:30:25.749Z,14.99
2019-05-12T17:33:00.873Z,14.73
2019-05-12T17:35:31.634Z,14.57
2019-05-12T17:37:59.159Z,14.57
2019-05-12T17:40:29.175Z,14.82
2019-05-12T17:43:09.195Z,14.49
2019-05-12T17:45:30.916Z,14.24
2019-05-12T17:48:05.954Z,14.44
2019-05-12T17:50:34.577Z,14.39
2019-05-12T17:53:04.643Z,14.65
2019-05-12T17:55:34.754Z,14.53
2019-05-12T17:58:04.741Z,14.53
2019-05-12T18:00:35.832Z,14.40
2019-05-12T18:03:20.624Z,14.36
2019-05-12T18:05:42.395Z,14.49
2019-05-12T18:08:09.696Z,14.28
2019-05-12T18:10:39.709Z,14.02
2019-05-12T18:13:17.180Z,14.08
2019-05-12T18:15:41.458Z,14.10
2019-05-12T18:18:15.332Z,13.62
2019-05-12T18:20:44.517Z,13.93
2019-05-12T18:23:19.841Z,13.98
2019-05-12T18:25:46.403Z,13.93
2019-05-12T18:28:21.505Z,13.72
2019-05-12T18:30:48.178Z,13.73
2019-05-12T18:33:30.748Z,13.53
2019-05-12T18:35:49.893Z,13.16
2019-05-12T18:38:23.973Z,13.20
2019-05-12T18:40:53.970Z,13.39
2019-05-12T18:43:24.266Z,13.12
2019-05-12T18:45:57.178Z,13.29
2019-05-12T18:48:26.234Z,13.10
2019-05-12T18:50:56.232Z,13.13
2019-05-12T18:53:31.541Z,13.04
2019-05-12T18:55:57.935Z,12.82
2019-05-12T18:58:31.056Z,12.73
2019-05-12T19:00:59.730Z,12.74
2019-05-12T19:03:43.923Z,12.77
2019-05-12T19:06:03.423Z,12.92
2019-05-12T19:08:33.238Z,12.72
2019-05-12T19:11:18.444Z,12.86
2019-05-12T19:13:35.012Z,12.64
2019-05-12T19:16:07.405Z,12.74
2019-05-12T19:18:37.661Z,12.83
2019-05-12T19:21:10.087Z,12.50
2019-05-12T19:23:39.365Z,12.25
2019-05-12T19:26:09.378Z,12.22
2019-05-12T19:28:44.437Z,12.57
2019-05-12T19:31:11.108Z,12.41
2019-05-12T19:33:43.975Z,12.18
2019-05-12T19:36:13.604Z,12.22
2019-05-12T19:38:43.989Z,12.00
2019-05-12T19:41:14.169Z,12.07
2019-05-12T19:43:45.473Z,12.27
2019-05-12T19:46:15.888Z,12.27
2019-05-12T19:48:49.775Z,12.03
2019-05-12T19:51:24.448Z,12.03
2019-05-12T19:53:49.370Z,11.85
2019-05-12T19:56:19.354Z,11.90
2019-05-12T19:58:49.348Z,11.64
2019-05-12T20:01:26.060Z,12.16
2019-05-12T20:03:55.714Z,12.15
2019-05-12T20:06:24.329Z,11.91
2019-05-12T20:09:05.986Z,11.85
2019-05-12T20:11:31.187Z,11.54
2019-05-12T20:13:58.002Z,11.61
2019-05-12T20:16:30.422Z,11.61
2019-05-12T20:18:59.764Z,11.37
2019-05-12T20:21:29.781Z,11.75
2019-05-12T20:23:59.850Z,11.89
2019-05-12T20:26:33.134Z,11.31
2019-05-12T20:29:04.403Z,11.38
2019-05-12T20:31:37.462Z,11.21
2019-05-12T20:34:10.773Z,11.80
2019-05-12T20:36:37.484Z,11.81
2019-05-12T20:39:10.135Z,11.81
2019-05-12T20:41:39.938Z,11.12
2019-05-12T20:44:17.268Z,11.78
2019-05-12T20:46:43.236Z,11.40
2019-05-12T20:49:14.915Z,11.74
2019-05-12T20:51:48.183Z,12.00
2019-05-12T20:54:18.198Z,11.39
2019-05-12T20:56:52.991Z,11.05
2019-05-12T20:59:23.849Z,11.51
2019-05-12T21:01:51.733Z,11.62
2019-05-12T21:04:30.803Z,10.87
2019-05-12T21:06:54.267Z,10.80
2019-05-12T21:09:24.617Z,11.23
2019-05-12T21:11:54.951Z,10.54
2019-05-12T21:14:25.087Z,11.40
2019-05-12T21:16:55.093Z,11.19
2019-05-12T21:19:29.280Z,11.39
2019-05-12T21:21:59.008Z,11.00
2019-05-12T21:24:29.575Z,11.33
2019-05-12T21:27:00.216Z,11.12
2019-05-12T21:29:30.235Z,11.40
2019-05-12T21:32:03.029Z,11.42
2019-05-12T21:34:34.366Z,10.53
2019-05-12T21:37:04.921Z,11.21
2019-05-12T21:39:40.564Z,10.76
2019-05-12T21:42:07.334Z,11.05
2019-05-12T21:44:41.273Z,11.23
2019-05-12T21:47:10.665Z,10.88
2019-05-12T21:49:42.628Z,10.91
2019-05-12T21:52:13.583Z,10.72
2019-05-12T21:54:44.059Z,10.87
2019-05-12T21:57:14.058Z,10.33
2019-05-12T21:59:44.424Z,11.06
2019-05-12T22:02:14.802Z,10.66
2019-05-12T22:04:46.291Z,10.62
2019-05-12T22:07:16.354Z,10.83
2019-05-12T22:10:05.265Z,10.32
2019-05-12T22:13:00.555Z,10.64
2019-05-12T22:16:29.693Z,10.30
2019-05-12T22:19:03.632Z,10.59
2019-05-12T22:21:35.844Z,9.97
2019-05-12T22:24:06.257Z,10.22
2019-05-12T22:26:40.348Z,10.39
2019-05-12T22:29:08.188Z,10.29
2019-05-12T22:31:43.547Z,10.16
2019-05-12T22:34:10.026Z,10.69
2019-05-12T22:36:45.256Z,10.28
2019-05-12T22:39:14.147Z,10.26
2019-05-12T22:41:43.557Z,10.34
2019-05-12T22:44:18.703Z,10.31
2019-05-12T22:46:45.238Z,10.17
2019-05-12T22:49:16.733Z,10.72
2019-05-12T22:51:46.984Z,10.07
2019-05-12T22:54:16.991Z,9.81
2019-05-12T22:56:49.580Z,9.76
2019-05-12T22:59:18.621Z,10.33
2019-05-12T23:01:48.612Z,10.62
2019-05-12T23:04:18.590Z,10.96
2019-05-12T23:06:48.595Z,10.59
2019-05-12T23:09:19.375Z,10.62
2019-05-12T23:11:50.241Z,11.06
2019-05-12T23:14:22.422Z,10.63
2019-05-12T23:16:54.369Z,11.20
2019-05-12T23:19:23.660Z,10.70
2019-05-12T23:21:55.346Z,11.06
2019-05-12T23:24:30.347Z,10.21
2019-05-12T23:26:57.000Z,9.80
2019-05-12T23:29:31.042Z,10.17
2019-05-12T23:32:00.599Z,9.84
2019-05-12T23:34:30.341Z,10.72
2019-05-12T23:37:00.340Z,10.49
2019-05-12T23:39:32.327Z,10.23
2019-05-12T23:42:04.200Z,10.55
2019-05-12T23:44:33.671Z,9.71
2019-05-12T23:47:04.280Z,9.89
2019-05-12T23:49:34.381Z,10.42
2019-05-12T23:52:04.361Z,10.56
2019-05-12T23:54:34.617Z,9.96
2019-05-12T23:57:04.678Z,9.84
2019-05-12T23:59:34.644Z,9.96
